createdAt,value
2017-09-24T00:01:51.030Z,14.42
2017-09-24T00:04:18.639Z,14.41
2017-09-24T00:06:46.551Z,14.42
2017-09-24T00:09:14.190Z,14.37
2017-09-24T00:11:41.770Z,14.36
2017-09-24T00:14:09.351Z,14.37
2017-09-24T00:16:37.482Z,14.38
2017-09-24T00:19:05.057Z,14.37
2017-09-24T00:21:32.676Z,14.36
2017-09-24T00:24:00.298Z,14.35
2017-09-24T00:26:27.886Z,14.33
2017-09-24T00:28:55.818Z,14.33
2017-09-24T00:31:23.405Z,14.33
2017-09-24T00:33:51.023Z,14.34
2017-09-24T00:36:18.612Z,14.34
2017-09-24T00:38:46.200Z,14.35
2017-09-24T00:41:13.835Z,14.36
2017-09-24T00:43:41.707Z,14.36
2017-09-24T00:46:09.319Z,14.36
2017-09-24T00:48:37.141Z,14.35
2017-09-24T00:51:04.728Z,14.35
2017-09-24T00:53:32.333Z,14.36
2017-09-24T00:55:59.925Z,14.36
2017-09-24T00:58:27.545Z,14.36
2017-09-24T01:00:55.152Z,14.36
2017-09-24T01:03:22.727Z,14.39
2017-09-24T01:05:50.343Z,14.37
2017-09-24T01:08:17.927Z,14.34
2017-09-24T01:10:45.556Z,14.35
2017-09-24T01:13:13.151Z,14.34
2017-09-24T01:15:40.718Z,14.34
2017-09-24T01:18:08.323Z,14.35
2017-09-24T01:20:35.913Z,14.34
2017-09-24T01:23:03.551Z,14.33
2017-09-24T01:25:31.145Z,14.34
2017-09-24T01:27:58.767Z,14.32
2017-09-24T01:30:26.376Z,14.33
2017-09-24T01:32:53.989Z,14.29
2017-09-24T01:35:21.619Z,14.29
2017-09-24T01:37:49.208Z,14.28
2017-09-24T01:40:16.800Z,14.30
2017-09-24T01:42:44.423Z,14.29
2017-09-24T01:45:12.253Z,14.27
2017-09-24T01:47:39.871Z,14.29
2017-09-24T01:50:07.467Z,14.29
2017-09-24T01:52:35.045Z,14.28
2017-09-24T01:55:02.668Z,14.28
2017-09-24T01:57:30.268Z,14.29
2017-09-24T01:59:57.887Z,14.30
2017-09-24T02:02:25.795Z,14.29
2017-09-24T02:04:53.380Z,14.29
2017-09-24T02:07:20.983Z,14.31
2017-09-24T02:09:48.568Z,14.32
2017-09-24T02:12:16.196Z,14.32
2017-09-24T02:14:43.788Z,14.34
2017-09-24T02:17:11.668Z,14.33
2017-09-24T02:19:39.271Z,14.34
2017-09-24T02:22:06.851Z,14.35
2017-09-24T02:24:34.471Z,14.35
2017-09-24T02:27:02.321Z,14.35
2017-09-24T02:29:30.495Z,14.34
2017-09-24T02:31:58.111Z,14.35
2017-09-24T02:34:25.712Z,14.34
2017-09-24T02:36:53.331Z,14.34
2017-09-24T02:39:20.981Z,14.34
2017-09-24T02:41:48.573Z,14.34
2017-09-24T02:44:16.183Z,14.34
2017-09-24T02:46:43.759Z,14.34
2017-09-24T02:49:11.714Z,14.33
2017-09-24T02:51:39.298Z,14.35
2017-09-24T02:54:06.880Z,14.36
2017-09-24T02:56:34.489Z,14.36
2017-09-24T02:59:02.064Z,14.36
2017-09-24T03:01:30.017Z,14.36
2017-09-24T03:03:57.599Z,14.35
2017-09-24T03:06:25.184Z,14.36
2017-09-24T03:08:52.799Z,14.36
2017-09-24T03:11:20.384Z,14.37
2017-09-24T03:13:47.995Z,14.37
2017-09-24T03:16:15.579Z,14.39
2017-09-24T03:18:43.156Z,14.39
2017-09-24T03:21:10.780Z,14.40
2017-09-24T03:23:38.357Z,14.41
2017-09-24T03:26:05.978Z,14.41
2017-09-24T03:28:33.895Z,14.41
2017-09-24T03:31:01.469Z,14.41
2017-09-24T03:33:29.082Z,14.41
2017-09-24T03:35:56.673Z,14.39
2017-09-24T03:38:24.552Z,14.39
2017-09-24T03:40:52.120Z,14.40
2017-09-24T03:43:19.699Z,14.39
2017-09-24T03:45:47.340Z,14.40
2017-09-24T03:48:14.916Z,14.40
2017-09-24T03:50:42.540Z,14.44
2017-09-24T03:53:10.127Z,14.47
2017-09-24T03:55:37.710Z,14.48
2017-09-24T03:58:05.324Z,14.47
2017-09-24T04:00:32.915Z,14.45
2017-09-24T04:03:00.563Z,14.45
2017-09-24T04:05:28.438Z,14.45
2017-09-24T04:07:56.019Z,14.45
2017-09-24T04:10:23.962Z,14.43
2017-09-24T04:12:51.561Z,14.45
2017-09-24T04:15:19.179Z,14.45
2017-09-24T04:17:46.756Z,14.45
2017-09-24T04:20:14.352Z,14.45
2017-09-24T04:22:41.968Z,14.46
2017-09-24T04:25:09.551Z,14.45
2017-09-24T04:27:37.216Z,14.45
2017-09-24T04:30:04.838Z,14.44
2017-09-24T04:32:32.427Z,14.44
2017-09-24T04:35:00.032Z,14.44
2017-09-24T04:37:27.626Z,14.43
2017-09-24T04:39:55.511Z,14.43
2017-09-24T04:42:23.093Z,14.43
2017-09-24T04:44:50.944Z,14.44
2017-09-24T04:47:18.550Z,14.45
2017-09-24T04:49:46.135Z,14.44
2017-09-24T04:52:13.751Z,14.46
2017-09-24T04:54:41.323Z,14.51
2017-09-24T04:57:08.920Z,14.65
2017-09-24T04:59:36.552Z,14.62
2017-09-24T05:02:04.142Z,14.56
2017-09-24T05:04:31.768Z,14.55
2017-09-24T05:06:59.347Z,14.52
2017-09-24T05:09:26.920Z,14.51
2017-09-24T05:11:54.551Z,14.54
2017-09-24T05:14:22.138Z,14.56
2017-09-24T05:16:49.777Z,14.57
2017-09-24T05:19:17.369Z,14.56
2017-09-24T05:21:44.943Z,14.64
2017-09-24T05:24:12.593Z,14.65
2017-09-24T05:26:40.170Z,14.63
2017-09-24T05:29:07.796Z,14.63
2017-09-24T05:31:35.379Z,14.66
2017-09-24T05:34:03.077Z,14.70
2017-09-24T05:36:30.725Z,14.71
2017-09-24T05:38:58.315Z,14.73
2017-09-24T05:41:25.941Z,14.72
2017-09-24T05:43:53.831Z,14.70
2017-09-24T05:46:21.414Z,14.70
2017-09-24T05:48:49.043Z,14.72
2017-09-24T05:51:16.617Z,14.72
2017-09-24T05:53:44.191Z,14.74
2017-09-24T05:56:11.808Z,14.76
2017-09-24T05:58:39.408Z,14.82
2017-09-24T06:01:07.011Z,14.84
2017-09-24T06:03:34.642Z,14.83
2017-09-24T06:06:02.231Z,14.85
2017-09-24T06:08:29.828Z,14.85
2017-09-24T06:10:57.442Z,14.88
2017-09-24T06:13:25.007Z,14.89
2017-09-24T06:15:52.644Z,14.92
2017-09-24T06:18:20.302Z,14.90
2017-09-24T06:20:47.945Z,14.90
2017-09-24T06:23:15.555Z,14.94
2017-09-24T06:25:43.145Z,14.95
2017-09-24T06:28:10.779Z,14.98
2017-09-24T06:30:38.376Z,14.99
2017-09-24T06:33:06.277Z,15.09
2017-09-24T06:35:33.876Z,15.10
2017-09-24T06:38:01.822Z,15.11
2017-09-24T06:40:29.444Z,15.12
2017-09-24T06:42:57.024Z,15.15
2017-09-24T06:45:24.605Z,15.24
2017-09-24T06:47:52.211Z,15.24
2017-09-24T06:50:19.799Z,15.25
2017-09-24T06:52:47.447Z,15.24
2017-09-24T06:55:15.050Z,15.30
2017-09-24T06:57:42.635Z,15.32
2017-09-24T07:00:10.267Z,15.29
2017-09-24T07:02:37.846Z,15.28
2017-09-24T07:05:05.468Z,15.30
2017-09-24T07:07:33.056Z,15.28
2017-09-24T07:10:00.758Z,15.28
2017-09-24T07:12:28.358Z,15.25
2017-09-24T07:14:55.962Z,15.23
2017-09-24T07:17:23.596Z,15.26
2017-09-24T07:19:51.180Z,15.24
2017-09-24T07:22:18.763Z,15.32
2017-09-24T07:24:46.396Z,15.45
2017-09-24T07:27:13.980Z,15.43
2017-09-24T07:29:41.614Z,15.46
2017-09-24T07:32:09.235Z,15.40
2017-09-24T07:34:37.269Z,15.34
2017-09-24T07:37:04.892Z,15.45
2017-09-24T07:39:32.511Z,15.47
2017-09-24T07:42:00.140Z,15.50
2017-09-24T07:44:27.998Z,15.51
2017-09-24T07:46:55.587Z,15.47
2017-09-24T07:49:23.201Z,15.54
2017-09-24T07:51:50.766Z,15.56
2017-09-24T07:54:19.013Z,15.51
2017-09-24T07:56:46.604Z,15.51
2017-09-24T07:59:14.214Z,15.49
2017-09-24T08:01:41.835Z,15.53
2017-09-24T08:04:09.420Z,15.57
2017-09-24T08:06:37.374Z,15.57
2017-09-24T08:09:05.239Z,15.58
2017-09-24T08:11:33.165Z,15.49
2017-09-24T08:14:00.763Z,15.49
2017-09-24T08:16:28.406Z,15.46
2017-09-24T08:18:56.044Z,15.43
2017-09-24T08:21:23.628Z,15.48
2017-09-24T08:23:51.201Z,15.46
2017-09-24T08:26:18.810Z,15.49
2017-09-24T08:28:46.424Z,15.56
2017-09-24T08:31:14.111Z,15.61
2017-09-24T08:33:41.716Z,15.63
2017-09-24T08:36:09.307Z,15.64
2017-09-24T08:38:37.304Z,15.63
2017-09-24T08:41:04.924Z,15.57
2017-09-24T08:43:32.935Z,15.56
2017-09-24T08:46:00.520Z,15.53
2017-09-24T08:48:28.117Z,15.59
2017-09-24T08:50:55.759Z,15.55
2017-09-24T08:53:23.341Z,15.56
2017-09-24T08:55:51.012Z,15.60
2017-09-24T08:58:18.624Z,15.62
2017-09-24T09:00:46.224Z,15.75
2017-09-24T09:03:13.848Z,15.81
2017-09-24T09:05:41.448Z,15.82
2017-09-24T09:08:09.084Z,15.90
2017-09-24T09:10:36.708Z,15.97
2017-09-24T09:13:04.308Z,16.02
2017-09-24T09:15:31.928Z,16.05
2017-09-24T09:17:59.533Z,16.14
2017-09-24T09:20:27.534Z,16.19
2017-09-24T09:22:55.125Z,16.19
2017-09-24T09:25:22.723Z,16.19
2017-09-24T09:27:50.331Z,16.16
2017-09-24T09:30:17.924Z,16.15
2017-09-24T09:32:45.589Z,16.24
2017-09-24T09:35:14.988Z,16.37
2017-09-24T09:37:42.579Z,16.37
2017-09-24T09:40:10.183Z,16.40
2017-09-24T09:42:37.755Z,16.37
2017-09-24T09:45:17.213Z,16.38
2017-09-24T09:47:44.787Z,16.47
2017-09-24T09:50:12.400Z,16.49
2017-09-24T09:52:40.300Z,16.52
2017-09-24T09:55:07.955Z,16.52
2017-09-24T09:57:35.844Z,16.55
2017-09-24T10:00:03.476Z,16.49
2017-09-24T10:02:31.067Z,16.51
2017-09-24T10:05:00.083Z,16.45
2017-09-24T10:07:39.523Z,16.51
2017-09-24T10:10:17.593Z,16.49
2017-09-24T10:12:45.287Z,16.44
2017-09-24T10:15:12.928Z,16.44
2017-09-24T10:17:40.514Z,16.48
2017-09-24T10:20:08.248Z,16.47
2017-09-24T10:22:35.834Z,16.43
2017-09-24T10:25:04.152Z,16.38
2017-09-24T10:27:31.770Z,16.34
2017-09-24T10:30:11.107Z,16.31
2017-09-24T10:32:38.707Z,16.39
2017-09-24T10:35:06.326Z,16.47
2017-09-24T10:37:33.952Z,16.49
2017-09-24T10:40:01.557Z,16.51
2017-09-24T10:42:29.194Z,16.53
2017-09-24T10:44:56.779Z,16.48
2017-09-24T10:47:24.361Z,16.51
2017-09-24T10:49:51.999Z,16.51
2017-09-24T10:52:19.587Z,16.50
2017-09-24T10:54:47.216Z,16.48
2017-09-24T10:57:14.852Z,16.40
2017-09-24T10:59:42.544Z,16.46
2017-09-24T11:02:10.147Z,16.42
2017-09-24T11:04:37.743Z,16.44
2017-09-24T11:07:05.636Z,16.47
2017-09-24T11:09:33.393Z,16.50
2017-09-24T11:12:00.975Z,16.49
2017-09-24T11:14:28.924Z,16.44
2017-09-24T11:16:56.590Z,16.41
2017-09-24T11:19:24.243Z,16.43
2017-09-24T11:21:51.849Z,16.45
2017-09-24T11:24:19.444Z,16.50
2017-09-24T11:26:47.052Z,16.46
2017-09-24T11:29:14.997Z,16.43
2017-09-24T11:31:42.635Z,16.40
2017-09-24T11:34:10.529Z,16.40
2017-09-24T11:36:38.121Z,16.36
2017-09-24T11:39:05.752Z,16.38
2017-09-24T11:41:33.332Z,16.41
2017-09-24T11:44:00.962Z,16.41
2017-09-24T11:46:28.561Z,16.52
2017-09-24T11:48:56.180Z,16.51
2017-09-24T11:51:23.880Z,16.49
2017-09-24T11:53:51.480Z,16.40
2017-09-24T11:56:19.106Z,16.37
2017-09-24T11:58:47.701Z,16.38
2017-09-24T12:01:15.306Z,16.44
2017-09-24T12:03:42.914Z,16.49
2017-09-24T12:06:10.507Z,16.49
2017-09-24T12:08:38.135Z,16.46
2017-09-24T12:11:05.725Z,16.42
2017-09-24T12:13:33.318Z,16.41
2017-09-24T12:16:00.945Z,16.43
2017-09-24T12:18:28.883Z,16.44
2017-09-24T12:20:56.514Z,16.48
2017-09-24T12:23:24.106Z,16.57
2017-09-24T12:25:51.686Z,16.58
2017-09-24T12:28:19.323Z,16.55
2017-09-24T12:30:46.905Z,16.50
2017-09-24T12:33:14.827Z,16.52
2017-09-24T12:35:42.422Z,16.57
2017-09-24T12:38:10.020Z,16.51
2017-09-24T12:40:37.644Z,16.42
2017-09-24T12:43:05.283Z,16.45
2017-09-24T12:45:32.908Z,16.51
2017-09-24T12:48:00.489Z,16.50
2017-09-24T12:50:28.161Z,16.60
2017-09-24T12:52:55.896Z,16.63
2017-09-24T12:55:23.475Z,16.61
2017-09-24T12:57:51.101Z,16.62
2017-09-24T13:00:18.676Z,16.65
2017-09-24T13:02:46.263Z,16.75
2017-09-24T13:05:13.864Z,16.76
2017-09-24T13:07:42.714Z,16.82
2017-09-24T13:10:10.535Z,16.84
2017-09-24T13:12:38.272Z,16.85
2017-09-24T13:15:05.859Z,16.87
2017-09-24T13:17:33.984Z,16.89
2017-09-24T13:20:01.566Z,16.84
2017-09-24T13:22:29.201Z,16.83
2017-09-24T13:27:30.740Z,16.84
2017-09-24T13:29:58.335Z,16.83
2017-09-24T13:32:25.938Z,16.88
2017-09-24T13:34:53.550Z,16.92
2017-09-24T13:37:21.165Z,16.86
2017-09-24T13:39:48.802Z,16.94
2017-09-24T13:42:16.489Z,16.91
2017-09-24T13:44:44.352Z,16.79
2017-09-24T13:47:12.064Z,16.81
2017-09-24T13:49:39.655Z,16.80
2017-09-24T13:52:07.307Z,16.75
2017-09-24T13:54:35.208Z,16.72
2017-09-24T13:57:02.794Z,16.70
2017-09-24T13:59:30.413Z,16.62
2017-09-24T14:01:58.045Z,16.50
2017-09-24T14:04:25.701Z,16.34
2017-09-24T14:06:53.295Z,16.25
2017-09-24T14:09:21.756Z,16.22
2017-09-24T14:11:49.436Z,16.22
2017-09-24T14:14:17.039Z,16.24
2017-09-24T14:16:44.680Z,16.27
2017-09-24T14:19:12.284Z,16.31
2017-09-24T14:21:39.908Z,16.40
2017-09-24T14:24:07.790Z,16.52
2017-09-24T14:26:35.405Z,16.67
2017-09-24T14:29:03.315Z,16.85
2017-09-24T14:31:30.917Z,17.07
2017-09-24T14:33:58.506Z,17.26
2017-09-24T14:36:26.126Z,17.34
2017-09-24T14:38:53.967Z,17.35
2017-09-24T14:41:21.588Z,17.34
2017-09-24T14:43:49.185Z,17.33
2017-09-24T14:46:16.780Z,17.31
2017-09-24T14:48:44.388Z,17.28
2017-09-24T14:51:11.969Z,17.32
2017-09-24T14:53:39.597Z,17.32
2017-09-24T14:56:07.199Z,17.35
2017-09-24T14:58:34.813Z,17.33
2017-09-24T15:01:02.434Z,17.33
2017-09-24T15:03:30.001Z,17.38
2017-09-24T15:05:57.619Z,17.40
2017-09-24T15:08:25.215Z,17.41
2017-09-24T15:10:52.807Z,17.38
2017-09-24T15:13:20.419Z,17.36
2017-09-24T15:15:48.019Z,17.38
2017-09-24T15:18:15.641Z,17.51
2017-09-24T15:20:43.525Z,17.71
2017-09-24T15:23:11.494Z,17.79
2017-09-24T15:25:39.105Z,17.83
2017-09-24T15:28:06.713Z,17.85
2017-09-24T15:30:34.332Z,17.81
2017-09-24T15:33:01.924Z,17.72
2017-09-24T15:35:29.621Z,17.65
2017-09-24T15:37:57.461Z,17.60
2017-09-24T15:40:25.116Z,17.60
2017-09-24T15:42:52.744Z,17.57
2017-09-24T15:45:20.326Z,17.54
2017-09-24T15:47:47.920Z,17.44
2017-09-24T15:50:15.528Z,17.43
2017-09-24T15:52:43.107Z,17.36
2017-09-24T15:55:11.003Z,17.31
2017-09-24T15:57:38.713Z,17.26
2017-09-24T16:00:06.342Z,17.22
2017-09-24T16:02:33.986Z,17.18
2017-09-24T16:05:01.865Z,17.14
2017-09-24T16:07:29.514Z,17.10
2017-09-24T16:09:57.225Z,17.08
2017-09-24T16:12:24.822Z,17.04
2017-09-24T16:14:52.463Z,17.01
2017-09-24T16:17:20.069Z,16.98
2017-09-24T16:19:48.050Z,16.96
2017-09-24T16:22:15.912Z,16.94
2017-09-24T16:24:43.493Z,16.90
2017-09-24T16:27:11.119Z,16.87
2017-09-24T16:29:38.715Z,16.84
2017-09-24T16:32:06.348Z,16.81
2017-09-24T16:34:33.928Z,16.79
2017-09-24T16:37:01.523Z,16.76
2017-09-24T16:39:29.273Z,16.74
2017-09-24T16:41:56.855Z,16.72
2017-09-24T16:44:24.479Z,16.70
2017-09-24T16:46:52.167Z,16.67
2017-09-24T16:49:19.808Z,16.65
2017-09-24T16:51:47.522Z,16.63
2017-09-24T16:54:15.115Z,16.61
2017-09-24T16:56:42.747Z,16.59
2017-09-24T16:59:10.330Z,16.59
2017-09-24T17:01:37.932Z,16.58
2017-09-24T17:04:05.539Z,16.56
2017-09-24T17:06:33.125Z,16.55
2017-09-24T17:09:01.211Z,16.53
2017-09-24T17:11:28.806Z,16.50
2017-09-24T17:13:56.448Z,16.49
2017-09-24T17:16:24.200Z,16.48
2017-09-24T17:18:52.692Z,16.48
2017-09-24T17:21:20.419Z,16.48
2017-09-24T17:23:48.308Z,16.47
2017-09-24T17:26:15.901Z,16.47
2017-09-24T17:28:43.512Z,16.47
2017-09-24T17:31:11.088Z,16.47
2017-09-24T17:33:38.713Z,16.46
2017-09-24T17:36:06.312Z,16.46
2017-09-24T17:38:33.887Z,16.46
2017-09-24T17:41:01.491Z,16.45
2017-09-24T17:43:29.089Z,16.44
2017-09-24T17:45:56.791Z,16.44
2017-09-24T17:48:24.393Z,16.44
2017-09-24T17:50:51.971Z,16.43
2017-09-24T17:53:19.819Z,16.44
2017-09-24T17:55:47.432Z,16.44
2017-09-24T17:58:15.062Z,16.61
2017-09-24T18:00:42.677Z,16.49
2017-09-24T18:03:10.293Z,16.42
2017-09-24T18:05:37.907Z,16.34
2017-09-24T18:08:05.540Z,16.29
2017-09-24T18:10:33.121Z,16.24
2017-09-24T18:13:00.747Z,16.23
2017-09-24T18:15:28.363Z,16.19
2017-09-24T18:17:55.946Z,16.20
2017-09-24T18:20:23.847Z,16.17
2017-09-24T18:22:51.712Z,16.16
2017-09-24T18:25:19.515Z,16.15
2017-09-24T18:27:47.132Z,16.15
2017-09-24T18:30:14.730Z,16.14
2017-09-24T18:32:42.311Z,16.14
2017-09-24T18:35:09.925Z,16.13
2017-09-24T18:37:37.622Z,16.14
2017-09-24T18:40:05.272Z,16.13
2017-09-24T18:42:33.131Z,16.13
2017-09-24T18:45:00.723Z,16.13
2017-09-24T18:47:28.516Z,16.11
2017-09-24T18:49:56.224Z,16.10
2017-09-24T18:52:23.940Z,16.11
2017-09-24T18:54:51.722Z,16.12
2017-09-24T18:57:19.346Z,16.13
2017-09-24T18:59:46.977Z,16.11
2017-09-24T19:02:14.547Z,16.11
2017-09-24T19:04:42.243Z,16.10
2017-09-24T19:07:09.824Z,16.11
2017-09-24T19:09:37.440Z,16.11
2017-09-24T19:12:05.101Z,16.11
2017-09-24T19:14:32.752Z,16.11
2017-09-24T19:17:00.464Z,16.13
2017-09-24T19:19:28.304Z,16.14
2017-09-24T19:21:56.277Z,16.13
2017-09-24T19:24:23.903Z,16.15
2017-09-24T19:26:51.483Z,16.14
2017-09-24T19:29:19.120Z,16.15
2017-09-24T19:31:46.758Z,16.15
2017-09-24T19:34:14.479Z,16.20
2017-09-24T19:36:42.214Z,16.18
2017-09-24T19:39:09.810Z,16.16
2017-09-24T19:46:24.466Z,16.09
2017-09-24T19:48:52.084Z,16.08
2017-09-24T19:51:19.693Z,16.07
2017-09-24T19:53:47.323Z,16.07
2017-09-24T19:56:14.915Z,16.07
2017-09-24T19:58:42.583Z,16.07
2017-09-24T20:01:10.233Z,16.08
2017-09-24T20:03:37.816Z,16.06
2017-09-24T20:06:05.458Z,16.03
2017-09-24T20:08:33.078Z,16.02
2017-09-24T20:11:00.679Z,16.00
2017-09-24T20:13:28.312Z,16.00
2017-09-24T20:15:55.904Z,16.02
2017-09-24T20:18:23.528Z,16.00
2017-09-24T20:20:51.122Z,16.01
2017-09-24T20:23:18.718Z,15.98
2017-09-24T20:25:46.327Z,15.97
2017-09-24T20:28:13.916Z,15.97
2017-09-24T20:30:41.563Z,15.96
2017-09-24T20:33:09.156Z,15.98
2017-09-24T20:35:36.763Z,15.98
2017-09-24T20:38:04.408Z,15.99
2017-09-24T20:40:32.009Z,16.00
2017-09-24T20:42:59.688Z,16.01
2017-09-24T20:45:27.280Z,16.03
2017-09-24T20:47:54.875Z,16.09
2017-09-24T20:50:22.475Z,16.12
2017-09-24T20:52:50.074Z,16.09
2017-09-24T20:55:18.016Z,16.07
2017-09-24T20:57:45.884Z,16.05
2017-09-24T21:00:13.779Z,16.04
2017-09-24T21:02:41.498Z,16.05
2017-09-24T21:05:09.071Z,16.03
2017-09-24T21:07:36.700Z,16.02
2017-09-24T21:10:04.280Z,16.04
2017-09-24T21:12:31.885Z,16.04
2017-09-24T21:14:59.492Z,16.04
2017-09-24T21:17:27.392Z,16.03
2017-09-24T21:19:55.365Z,16.02
2017-09-24T21:22:22.960Z,16.02
2017-09-24T21:24:50.552Z,16.02
2017-09-24T21:27:18.160Z,16.02
2017-09-24T21:29:45.773Z,16.01
2017-09-24T21:32:13.682Z,16.02
2017-09-24T21:34:41.271Z,16.03
2017-09-24T21:37:08.872Z,16.05
2017-09-24T21:39:36.766Z,16.07
2017-09-24T21:42:04.343Z,16.06
2017-09-24T21:44:31.962Z,16.06
2017-09-24T21:46:59.540Z,16.03
2017-09-24T21:49:27.419Z,16.02
2017-09-24T21:51:55.032Z,16.02
2017-09-24T21:54:22.951Z,16.03
2017-09-24T21:56:50.871Z,16.04
2017-09-24T21:59:18.456Z,16.04
2017-09-24T22:01:46.355Z,16.04
2017-09-24T22:04:13.972Z,16.04
2017-09-24T22:06:41.556Z,16.05
2017-09-24T22:09:09.443Z,16.04
2017-09-24T22:11:37.023Z,16.04
2017-09-24T22:14:04.747Z,16.04
2017-09-24T22:16:32.391Z,16.04
2017-09-24T22:18:59.974Z,16.05
2017-09-24T22:21:27.600Z,16.04
2017-09-24T22:23:55.174Z,16.03
2017-09-24T22:26:22.747Z,16.02
2017-09-24T22:28:50.353Z,16.01
2017-09-24T22:31:17.939Z,16.01
2017-09-24T22:33:45.573Z,15.99
2017-09-24T22:36:13.156Z,15.95
2017-09-24T22:38:40.744Z,15.93
2017-09-24T22:41:08.653Z,15.92
2017-09-24T22:43:36.243Z,15.88
2017-09-24T22:46:03.877Z,15.85
2017-09-24T22:48:31.467Z,15.83
2017-09-24T22:50:59.067Z,15.82
2017-09-24T22:53:26.968Z,15.80
2017-09-24T22:55:54.547Z,15.82
2017-09-24T22:58:22.184Z,15.82
2017-09-24T23:00:49.768Z,15.81
2017-09-24T23:03:17.340Z,15.82
2017-09-24T23:05:44.956Z,15.82
2017-09-24T23:08:12.532Z,15.84
2017-09-24T23:10:40.316Z,15.83
2017-09-24T23:13:08.182Z,15.84
2017-09-24T23:15:35.763Z,15.85
2017-09-24T23:18:03.365Z,15.86
2017-09-24T23:20:30.971Z,15.88
2017-09-24T23:22:58.589Z,15.88
2017-09-24T23:25:26.163Z,15.88
2017-09-24T23:27:53.756Z,15.90
2017-09-24T23:30:21.361Z,15.90
2017-09-24T23:32:48.987Z,15.90
2017-09-24T23:35:16.630Z,15.90
2017-09-24T23:37:44.207Z,15.90
2017-09-24T23:40:11.785Z,15.91
2017-09-24T23:42:39.405Z,15.91
2017-09-24T23:45:06.988Z,15.90
2017-09-24T23:47:34.607Z,15.89
2017-09-24T23:50:02.198Z,15.91
2017-09-24T23:52:29.780Z,15.91
2017-09-24T23:54:57.409Z,15.91
2017-09-24T23:57:24.989Z,15.90
2017-09-24T23:59:52.611Z,15.91
